Time;durP1;ratioP1;P1;durP2;ratioP2;P2;SDS_P1;SDS_P2;PMS_P1;PMS_P2;Temp;Humidity;BMP_temperature;BMP_pressure;BME280_temperature;BME280_humidity;BME280_pressure;Samples;Min_cycle;Max_cycle;Signal;HPM_P1;HPM_P2
2022/03/27 00:00:09;;;;;;;;;37.25;32.00;;;;;16.71;33.71;102302.63;4979644;28;46681;-77
2022/03/27 00:02:35;;;;;;;;;41.00;35.00;;;;;16.73;33.74;102307.00;4980632;28;45660;-77
2022/03/27 00:05:00;;;;;;;;;39.00;33.75;;;;;16.67;33.62;102301.81;4981031;28;45369;-77
2022/03/27 00:07:25;;;;;;;;;38.75;32.50;;;;;16.68;33.91;102309.84;4980699;28;45548;-77
2022/03/27 00:09:51;;;;;;;;;39.50;34.00;;;;;16.64;33.78;102310.03;4980749;28;45269;-77
2022/03/27 00:12:16;;;;;;;;;40.50;32.75;;;;;16.61;33.84;102312.81;4980564;28;45340;-77
2022/03/27 00:14:42;;;;;;;;;42.00;35.25;;;;;16.53;33.93;102294.19;4980801;28;45324;-77
2022/03/27 00:17:07;;;;;;;;;47.50;35.75;;;;;16.54;33.93;102304.06;4980600;28;45626;-77
2022/03/27 00:19:32;;;;;;;;;39.00;33.00;;;;;16.42;33.95;102304.44;4980488;28;46327;-77
2022/03/27 00:21:58;;;;;;;;;42.75;35.00;;;;;16.40;33.98;102301.78;4980444;28;45400;-77
2022/03/27 00:24:23;;;;;;;;;37.00;33.00;;;;;16.33;34.30;102299.34;4980569;28;45341;-77
2022/03/27 00:26:48;;;;;;;;;39.00;33.25;;;;;16.34;34.24;102290.31;4980286;28;45542;-77
2022/03/27 00:29:16;;;;;;;;;35.75;32.50;;;;;16.31;34.25;102288.63;4980239;28;45300;-77
2022/03/27 00:31:42;;;;;;;;;35.75;32.25;;;;;16.31;34.18;102302.09;4980471;28;45309;-77
2022/03/27 00:34:07;;;;;;;;;35.75;30.50;;;;;16.28;34.18;102303.06;4980204;28;45245;-77
2022/03/27 00:36:32;;;;;;;;;38.75;34.50;;;;;16.26;34.35;102293.28;4980200;28;45524;-77
2022/03/27 00:38:58;;;;;;;;;36.50;33.00;;;;;16.26;34.37;102294.13;4980432;28;45257;-77
2022/03/27 00:41:24;;;;;;;;;35.25;29.50;;;;;16.22;34.37;102297.88;4980339;28;45317;-77
2022/03/27 00:43:50;;;;;;;;;36.25;32.25;;;;;16.17;34.62;102291.75;4980552;28;45759;-77
2022/03/27 00:46:16;;;;;;;;;36.50;31.50;;;;;16.17;34.53;102297.16;4980257;28;45323;-77
2022/03/27 00:48:41;;;;;;;;;43.50;35.50;;;;;16.13;34.53;102302.66;4980206;28;45296;-77
2022/03/27 00:51:07;;;;;;;;;35.25;33.00;;;;;16.12;34.68;102301.75;4980215;28;45308;-77
2022/03/27 00:53:32;;;;;;;;;45.50;37.50;;;;;16.05;34.69;102289.41;4980137;28;45216;-77
2022/03/27 00:55:58;;;;;;;;;42.50;37.25;;;;;16.06;34.80;102302.84;4980229;28;45358;-77
2022/03/27 00:58:23;;;;;;;;;40.00;33.00;;;;;16.01;34.97;102288.63;4979858;28;46221;-77
2022/03/27 01:01:12;;;;;;;;;43.25;32.75;;;;;15.98;35.02;102296.81;4980223;28;45379;-77
2022/03/27 01:03:38;;;;;;;;;44.25;36.25;;;;;15.97;35.00;102296.84;4980409;28;45296;-77
2022/03/27 01:06:03;;;;;;;;;36.75;32.25;;;;;15.88;35.11;102282.72;4979921;28;45485;-77
2022/03/27 01:11:20;;;;;;;;;37.50;33.00;;;;;15.92;35.37;102284.41;4980406;28;45572;-77
2022/03/27 01:13:57;;;;;;;;;45.25;35.25;;;;;15.92;35.39;102289.81;4983169;28;45358;-77
2022/03/27 01:16:56;;;;;;;;;44.75;36.50;;;;;15.87;35.26;102285.47;4983280;28;45582;-77
2022/03/27 01:19:21;;;;;;;;;46.75;36.00;;;;;15.78;35.54;102285.75;4981859;28;48264;-77
2022/03/27 01:21:47;;;;;;;;;38.50;33.00;;;;;15.79;35.67;102282.16;4983108;28;45263;-77
2022/03/27 01:24:15;;;;;;;;;43.25;36.00;;;;;15.74;35.51;102290.31;4983270;28;45147;-77
2022/03/27 01:26:40;;;;;;;;;44.75;35.75;;;;;15.69;35.68;102276.13;4982955;28;45237;-77
2022/03/27 01:29:06;;;;;;;;;43.25;36.75;;;;;15.74;36.08;102276.88;4982900;28;47111;-77
2022/03/27 01:31:33;;;;;;;;;41.75;33.25;;;;;15.73;35.76;102272.38;4982987;28;45386;-77
2022/03/27 01:33:58;;;;;;;;;41.00;36.50;;;;;15.75;36.04;102270.53;4983027;28;45420;-77
2022/03/27 01:36:28;;;;;;;;;45.25;37.25;;;;;15.77;35.96;102274.13;4982837;28;45566;-77
2022/03/27 01:38:55;;;;;;;;;43.50;35.25;;;;;15.72;36.18;102266.13;4982820;28;47268;-77
2022/03/27 01:41:21;;;;;;;;;43.75;36.00;;;;;15.72;36.08;102270.66;4982891;28;45458;-77
2022/03/27 01:43:46;;;;;;;;;39.25;32.25;;;;;15.69;36.21;102263.53;4982992;28;45299;-77
2022/03/27 01:46:12;;;;;;;;;42.25;35.00;;;;;15.74;36.33;102258.00;4982783;28;45495;-77
2022/03/27 01:48:38;;;;;;;;;43.00;36.00;;;;;15.74;36.26;102264.28;4982822;28;47245;-78
2022/03/27 01:51:03;;;;;;;;;44.00;32.25;;;;;15.74;36.30;102263.41;4982772;28;45360;-77
2022/03/27 01:53:29;;;;;;;;;42.00;36.50;;;;;15.70;36.24;102262.63;4982611;28;45239;-77
2022/03/27 01:55:54;;;;;;;;;46.50;37.00;;;;;15.72;36.30;102258.06;4982794;28;45234;-77
2022/03/27 01:58:21;;;;;;;;;45.00;36.25;;;;;15.65;36.24;102255.59;4982122;28;47145;-77
2022/03/27 02:00:46;;;;;;;;;42.00;34.00;;;;;15.69;36.61;102257.28;4982804;28;45566;-77
2022/03/27 02:03:11;;;;;;;;;45.75;33.50;;;;;15.66;36.41;102250.16;4982582;28;45290;-77
2022/03/27 02:05:37;;;;;;;;;43.75;37.00;;;;;15.69;36.49;102257.28;4982641;28;45579;-77
2022/03/27 02:08:03;;;;;;;;;34.50;30.50;;;;;15.67;36.64;102251.94;4982354;28;45462;-77
2022/03/27 02:10:29;;;;;;;;;41.00;33.00;;;;;15.64;36.66;102248.47;4982500;28;45694;-77
2022/03/27 02:12:55;;;;;;;;;38.75;34.00;;;;;15.60;36.87;102244.94;4982367;28;45457;-77
2022/03/27 02:15:20;;;;;;;;;40.50;34.25;;;;;15.64;36.96;102259.22;4982365;28;45320;-77
2022/03/27 02:17:45;;;;;;;;;3.50;0.00;;;;;15.62;36.72;102255.66;4982296;28;45406;-77
2022/03/27 02:20:12;;;;;;;;;39.00;34.50;;;;;15.56;37.06;102256.75;4982340;28;45347;-77
2022/03/27 02:22:38;;;;;;;;;42.00;35.50;;;;;15.54;36.96;102253.22;4981738;28;45309;-77
2022/03/27 02:25:04;;;;;;;;;34.50;28.00;;;;;15.52;37.09;102247.88;4981945;28;45260;-77
2022/03/27 02:27:29;;;;;;;;;42.00;36.50;;;;;15.52;37.17;102260.47;4981801;28;47608;-77
2022/03/27 02:29:55;;;;;;;;;42.25;34.50;;;;;15.49;37.20;102256.03;4982241;28;45370;-77
2022/03/27 02:32:20;;;;;;;;;44.25;35.50;;;;;15.48;37.23;102253.38;4982128;28;45880;-77
2022/03/27 02:34:46;;;;;;;;;38.00;33.25;;;;;15.49;36.98;102261.41;4982109;28;45520;-77
2022/03/27 02:37:13;;;;;;;;;43.25;34.00;;;;;15.45;37.26;102250.78;4981729;28;46259;-77
2022/03/27 02:39:39;;;;;;;;;45.50;36.75;;;;;15.45;37.20;102262.44;4982069;28;45371;-77
2022/03/27 02:42:05;;;;;;;;;41.00;34.50;;;;;15.35;37.36;102258.22;4981779;28;45334;-77
2022/03/27 02:44:30;;;;;;;;;34.00;31.00;;;;;15.38;37.25;102258.16;4982051;28;45411;-78
2022/03/27 02:46:55;;;;;;;;;46.25;36.25;;;;;15.37;37.50;102259.09;4980325;28;45995;-77
2022/03/27 02:49:20;;;;;;;;;46.00;36.50;;;;;15.33;37.28;102252.88;4982073;28;45398;-77
2022/03/27 02:51:46;;;;;;;;;43.50;35.25;;;;;15.36;37.73;102251.94;4981768;28;45459;-78
2022/03/27 02:54:13;;;;;;;;;43.75;33.75;;;;;15.33;37.56;102260.09;4981737;28;45509;-77
2022/03/27 02:56:39;;;;;;;;;40.75;36.25;;;;;15.29;37.93;102250.34;4981249;28;46133;-77
2022/03/27 02:59:05;;;;;;;;;42.75;33.75;;;;;15.22;38.06;102257.72;4981846;28;45341;-77
2022/03/27 03:01:31;;;;;;;;;40.50;35.00;;;;;15.15;37.87;102259.69;4981735;28;45320;-77
2022/03/27 03:03:57;;;;;;;;;42.50;34.25;;;;;15.09;38.00;102254.47;4981723;28;45258;-77
2022/03/27 03:06:24;;;;;;;;;39.25;34.25;;;;;15.04;38.27;102256.41;4979987;28;48275;-77
2022/03/27 03:08:50;;;;;;;;;43.50;34.75;;;;;15.04;38.21;102251.03;4981647;28;45470;-77
2022/03/27 03:11:16;;;;;;;;;37.00;33.00;;;;;15.07;38.50;102256.31;4981695;28;45312;-77
2022/03/27 03:13:43;;;;;;;;;41.75;34.00;;;;;15.11;38.43;102265.19;4981366;28;45261;-77
2022/03/27 03:16:09;;;;;;;;;41.25;34.00;;;;;15.07;38.51;102261.69;4980974;28;46538;-77
2022/03/27 03:18:35;;;;;;;;;38.50;35.50;;;;;15.08;38.38;102250.00;4981699;28;45263;-77
2022/03/27 03:21:01;;;;;;;;;42.75;35.00;;;;;15.06;38.16;102262.63;4981637;28;45210;-77
2022/03/27 03:23:26;;;;;;;;;40.75;36.00;;;;;14.99;38.63;102266.41;4981412;28;45249;-77
2022/03/27 03:25:52;;;;;;;;;38.50;33.25;;;;;14.87;38.68;102243.41;4981316;28;46277;-78
2022/03/27 03:28:17;;;;;;;;;42.75;35.25;;;;;14.85;38.77;102250.63;4981153;28;45233;-77
2022/03/27 03:30:42;;;;;;;;;40.00;33.75;;;;;14.86;38.70;102267.66;4981238;28;45490;-77
2022/03/27 03:33:08;;;;;;;;;32.25;28.25;;;;;14.80;39.07;102249.84;4981355;28;45451;-78
2022/03/27 03:35:34;;;;;;;;;43.75;34.50;;;;;14.86;39.01;102268.53;4980777;28;45158;-77
2022/03/27 03:37:59;;;;;;;;;42.50;35.00;;;;;14.89;39.25;102262.19;4980925;28;45353;-77
2022/03/27 03:40:25;;;;;;;;;37.75;31.50;;;;;14.84;39.25;102259.63;4981138;28;45516;-77
2022/03/27 03:42:51;;;;;;;;;37.00;33.00;;;;;14.75;39.00;102260.75;4981032;28;45315;-77
2022/03/27 03:45:18;;;;;;;;;39.25;34.50;;;;;14.73;38.87;102259.88;4980816;28;45410;-77
2022/03/27 03:47:43;;;;;;;;;46.25;36.00;;;;;14.66;39.03;102266.34;4981045;28;45572;-77
2022/03/27 03:50:10;;;;;;;;;43.50;36.25;;;;;14.60;39.73;102272.75;4980999;28;45621;-77
2022/03/27 03:52:35;;;;;;;;;39.50;34.25;;;;;14.52;39.78;102255.91;4980856;28;45293;-77
2022/03/27 03:55:01;;;;;;;;;39.25;34.00;;;;;14.56;39.78;102267.47;4980652;28;45674;-77
2022/03/27 03:57:26;;;;;;;;;36.25;33.75;;;;;14.52;39.95;102273.84;4980720;28;45382;-77
2022/03/27 03:59:52;;;;;;;;;36.00;33.00;;;;;14.53;40.00;102271.09;4980831;28;45469;-77
2022/03/27 04:02:19;;;;;;;;;33.75;31.00;;;;;14.50;39.97;102262.22;4981049;28;45469;-77
2022/03/27 04:04:44;;;;;;;;;36.75;31.50;;;;;14.56;39.85;102267.47;4980523;28;45447;-77
2022/03/27 04:07:10;;;;;;;;;36.00;33.00;;;;;14.61;39.99;102266.44;4980713;28;45356;-77
2022/03/27 04:09:35;;;;;;;;;33.50;31.00;;;;;14.60;39.76;102259.31;4980810;28;45357;-77
2022/03/27 04:12:01;;;;;;;;;38.25;31.25;;;;;14.64;39.44;102263.69;4980607;28;45327;-77
2022/03/27 04:14:29;;;;;;;;;34.25;30.50;;;;;14.64;39.84;102265.50;4980232;28;45360;-77
2022/03/27 04:16:55;;;;;;;;;32.75;31.00;;;;;14.62;39.89;102261.97;4980715;28;45780;-77
2022/03/27 04:19:20;;;;;;;;;25.75;24.00;;;;;14.66;39.66;102270.84;4980693;28;45418;-77
2022/03/27 04:21:46;;;;;;;;;35.50;28.00;;;;;14.66;40.06;102273.53;4980587;28;45237;-77
2022/03/27 04:24:11;;;;;;;;;43.00;35.25;;;;;14.66;39.83;102278.91;4980274;28;46185;-77
2022/03/27 04:26:39;;;;;;;;;36.50;32.75;;;;;14.64;39.78;102273.56;4980249;28;45294;-77
2022/03/27 04:29:04;;;;;;;;;40.25;31.25;;;;;14.62;40.06;102280.78;4980479;28;45330;-77
2022/03/27 04:31:30;;;;;;;;;38.75;32.25;;;;;14.62;40.10;102275.41;4980238;28;45329;-77
2022/03/27 04:33:55;;;;;;;;;39.75;31.75;;;;;14.64;39.71;102278.94;4980033;28;45293;-77
2022/03/27 04:36:21;;;;;;;;;14.00;11.25;;;;;14.60;39.64;102275.44;4980169;28;45380;-77
2022/03/27 04:38:46;;;;;;;;;44.25;35.25;;;;;14.54;39.49;102272.88;4979231;28;45452;-78
2022/03/27 04:41:11;;;;;;;;;40.00;33.75;;;;;14.46;39.64;102285.59;4978957;28;45512;-78
2022/03/27 04:43:37;;;;;;;;;40.50;33.25;;;;;14.35;39.96;102268.84;4980134;28;46102;-77
2022/03/27 04:46:02;;;;;;;;;39.75;34.00;;;;;14.40;40.35;102281.28;4980468;28;45300;-77
2022/03/27 04:48:29;;;;;;;;;43.25;33.25;;;;;14.36;40.46;102276.00;4983866;28;45311;-78
2022/03/27 04:50:54;;;;;;;;;38.25;32.75;;;;;14.37;40.39;102273.28;4983837;28;45451;-77
2022/03/27 04:53:20;;;;;;;;;37.50;33.00;;;;;14.43;40.55;102283.00;4983311;28;46169;-77
2022/03/27 04:55:45;;;;;;;;;34.00;30.75;;;;;14.41;40.47;102283.03;4983842;28;45238;-77
2022/03/27 04:58:11;;;;;;;;;37.50;32.50;;;;;14.39;40.33;102279.50;4983531;28;45337;-77
2022/03/27 05:00:37;;;;;;;;;36.25;32.50;;;;;14.37;40.54;102289.41;4983835;28;45242;-77
2022/03/27 05:03:02;;;;;;;;;32.25;31.25;;;;;14.32;40.28;102274.31;4983433;28;45232;-78
2022/03/27 05:05:28;;;;;;;;;32.75;29.25;;;;;14.34;40.43;102284.09;4983626;28;45244;-77
2022/03/27 05:07:53;;;;;;;;;36.50;32.75;;;;;14.29;40.62;102277.94;4983461;28;45415;-77
2022/03/27 05:10:19;;;;;;;;;36.75;31.50;;;;;14.29;40.61;102298.56;4983564;28;45552;-77
2022/03/27 05:12:45;;;;;;;;;39.00;32.00;;;;;14.23;40.72;102296.88;4982996;28;46201;-77
2022/03/27 05:15:12;;;;;;;;;30.50;26.50;;;;;14.20;41.03;102295.19;4983429;28;45374;-77
2022/03/27 05:17:49;;;;;;;;;34.75;30.50;;;;;14.12;40.95;102296.28;4983264;28;45453;-77
2022/03/27 05:20:14;;;;;;;;;30.00;26.75;;;;;14.08;40.98;102293.66;4983454;28;45341;-77
2022/03/27 05:22:42;;;;;;;;;31.75;29.00;;;;;14.12;41.28;102302.50;4983091;28;45467;-77
2022/03/27 05:25:09;;;;;;;;;30.50;29.25;;;;;14.14;41.10;102302.47;4983412;28;45249;-77
2022/03/27 05:27:41;;;;;;;;;36.25;31.00;;;;;14.09;41.14;102306.13;4983061;28;45474;-77
2022/03/27 05:30:08;;;;;;;;;37.50;30.50;;;;;14.07;41.07;102301.75;4983175;28;45290;-78
2022/03/27 05:32:33;;;;;;;;;27.75;23.50;;;;;14.13;41.00;102308.75;4983045;28;45190;-77
2022/03/27 05:34:58;;;;;;;;;37.25;29.50;;;;;14.02;41.07;102300.97;4982975;28;45422;-78
2022/03/27 05:37:23;;;;;;;;;35.00;30.50;;;;;14.06;41.30;102308.88;4983067;28;45351;-77
2022/03/27 05:39:49;;;;;;;;;29.50;25.75;;;;;14.06;41.27;102303.50;4982857;28;45241;-78
2022/03/27 05:42:14;;;;;;;;;33.75;31.50;;;;;14.01;41.21;102305.41;4982710;28;46322;-77
2022/03/27 05:44:39;;;;;;;;;37.25;29.50;;;;;13.92;41.69;102292.22;4981620;28;45472;-77
2022/03/27 05:47:05;;;;;;;;;34.75;31.00;;;;;13.96;41.47;102301.09;4982948;28;45413;-77
2022/03/27 05:49:30;;;;;;;;;35.25;31.75;;;;;13.92;41.96;102294.91;4982901;28;45563;-77
2022/03/27 05:51:56;;;;;;;;;33.50;29.50;;;;;13.86;41.64;102295.91;4982726;28;45460;-78
2022/03/27 05:54:21;;;;;;;;;29.75;28.00;;;;;13.92;41.42;102302.94;4982656;28;45363;-77
2022/03/27 05:56:46;;;;;;;;;32.75;27.75;;;;;13.95;41.67;102304.66;4982772;28;45435;-78
2022/03/27 05:59:11;;;;;;;;;30.50;26.75;;;;;13.97;41.53;102308.22;4981289;28;45316;-77
2022/03/27 06:01:37;;;;;;;;;27.25;24.75;;;;;13.89;41.74;102305.69;4982620;28;46209;-77
2022/03/27 06:04:02;;;;;;;;;25.50;25.00;;;;;13.86;41.88;102312.00;4982618;28;45294;-78
2022/03/27 06:06:29;;;;;;;;;26.75;23.75;;;;;13.79;41.92;102302.31;4982666;28;45551;-78
2022/03/27 06:08:57;;;;;;;;;29.50;27.50;;;;;13.83;41.76;102317.47;4982662;28;45298;-78
2022/03/27 06:11:22;;;;;;;;;29.50;28.25;;;;;13.82;41.77;102317.50;4982138;28;47243;-77
2022/03/27 06:13:48;;;;;;;;;31.75;29.75;;;;;13.79;41.82;102317.53;4982377;28;45266;-77
2022/03/27 06:16:13;;;;;;;;;34.00;28.50;;;;;13.77;41.95;102314.03;4982326;28;45425;-77
2022/03/27 06:18:38;;;;;;;;;26.50;25.25;;;;;13.77;41.82;102322.06;4982620;28;45523;-78
2022/03/27 06:21:04;;;;;;;;;29.00;26.75;;;;;13.84;41.91;102318.34;4982233;28;46479;-78
2022/03/27 06:23:29;;;;;;;;;29.50;27.25;;;;;13.84;41.94;102321.00;4982127;28;45324;-78
2022/03/27 06:25:54;;;;;;;;;31.75;25.75;;;;;13.85;41.94;102325.47;4982516;28;45340;-78
2022/03/27 06:28:20;;;;;;;;;34.50;32.50;;;;;13.80;42.18;102314.84;4981916;28;45375;-77
2022/03/27 06:30:45;;;;;;;;;30.75;28.00;;;;;13.89;41.90;102322.69;4982149;28;45376;-77
2022/03/27 06:33:10;;;;;;;;;29.75;27.50;;;;;13.94;41.79;102332.44;4982153;28;45320;-78
2022/03/27 06:35:37;;;;;;;;;35.75;32.00;;;;;13.90;41.96;102323.59;4982135;28;45309;-78
2022/03/27 06:38:03;;;;;;;;;32.00;27.50;;;;;13.84;41.76;102321.00;4981836;28;45439;-78
2022/03/27 06:40:28;;;;;;;;;31.25;30.00;;;;;13.91;41.83;102319.97;4981882;28;45630;-78
2022/03/27 06:42:53;;;;;;;;;33.50;30.25;;;;;13.95;41.80;102331.50;4981918;28;45238;-78
2022/03/27 06:45:19;;;;;;;;;33.25;31.25;;;;;13.89;42.33;102320.00;4982060;28;45266;-78
2022/03/27 06:47:46;;;;;;;;;30.00;26.25;;;;;13.94;42.08;102316.34;4981928;28;45171;-78
2022/03/27 06:50:12;;;;;;;;;27.00;26.00;;;;;13.99;41.94;102327.88;4981877;28;45420;-78
2022/03/27 06:52:39;;;;;;;;;32.50;30.75;;;;;13.97;41.98;102327.91;4981657;28;45257;-77
2022/03/27 06:55:08;;;;;;;;;35.25;31.75;;;;;13.94;42.04;102327.97;4981969;28;45339;-77
2022/03/27 06:57:33;;;;;;;;;33.75;27.75;;;;;13.78;42.13;102311.31;4981631;28;45232;-77
2022/03/27 07:05:28;;;;;;;;;33.50;29.50;;;;;13.85;42.49;102329.03;4981813;28;45320;-77
2022/03/27 07:07:53;;;;;;;;;26.75;25.00;;;;;13.77;42.36;102316.69;4981412;28;45532;-77
2022/03/27 07:10:19;;;;;;;;;36.00;33.50;;;;;13.78;42.36;102321.13;4981063;28;45179;-77
2022/03/27 07:12:46;;;;;;;;;30.75;28.50;;;;;13.80;42.50;102330.03;4981037;28;45391;-78
2022/03/27 07:15:12;;;;;;;;;34.00;31.75;;;;;13.79;42.31;102330.97;4981469;28;45478;-78
2022/03/27 07:17:44;;;;;;;;;28.25;28.25;;;;;13.74;42.26;102323.00;4981334;28;45577;-78
2022/03/27 07:20:12;;;;;;;;;32.00;27.50;;;;;13.79;42.43;102325.59;4981557;28;45393;-78
2022/03/27 07:22:38;;;;;;;;;30.00;26.00;;;;;13.78;42.40;102326.50;4981216;28;45609;-78
2022/03/27 07:25:04;;;;;;;;;32.00;27.50;;;;;13.78;42.41;102331.88;4981646;28;45398;-78
2022/03/27 07:27:31;;;;;;;;;34.50;29.75;;;;;13.83;42.43;102340.72;4981105;28;45450;-77
2022/03/27 07:29:56;;;;;;;;;38.00;32.75;;;;;13.80;42.28;102341.66;4981082;28;46156;-77
2022/03/27 07:32:21;;;;;;;;;32.25;32.00;;;;;13.69;42.24;102325.78;4981292;28;45397;-77
2022/03/27 07:34:46;;;;;;;;;31.25;25.50;;;;;13.72;42.48;102340.94;4981191;28;45408;-78
2022/03/27 07:37:13;;;;;;;;;31.75;29.50;;;;;13.69;42.43;102347.25;4980850;28;45536;-79
2022/03/27 07:39:38;;;;;;;;;34.00;30.75;;;;;13.62;42.19;102339.34;4981209;28;47276;-78
2022/03/27 07:42:04;;;;;;;;;32.25;29.75;;;;;13.63;42.60;102347.38;4980705;28;45226;-77
2022/03/27 07:44:29;;;;;;;;;35.50;31.00;;;;;13.58;42.74;102334.94;4979960;28;45267;-78
2022/03/27 07:46:58;;;;;;;;;33.25;28.50;;;;;13.63;42.92;102343.78;4980966;28;45162;-78
2022/03/27 07:49:24;;;;;;;;;36.75;31.75;;;;;13.62;43.00;102340.22;4980976;28;45377;-77
2022/03/27 07:51:49;;;;;;;;;32.75;30.50;;;;;13.67;43.10;102341.03;4980974;28;45328;-77
2022/03/27 07:54:14;;;;;;;;;28.50;28.00;;;;;13.77;42.86;102340.84;4979678;28;45317;-77
2022/03/27 07:56:40;;;;;;;;;31.50;29.50;;;;;13.83;42.79;102340.72;4980595;28;45327;-77
2022/03/27 07:59:06;;;;;;;;;38.00;32.25;;;;;13.92;42.64;102356.63;4980849;28;45844;-77
2022/03/27 08:01:31;;;;;;;;;34.25;31.50;;;;;13.86;42.40;102333.47;4980824;28;45324;-77
2022/03/27 08:03:58;;;;;;;;;33.25;29.00;;;;;13.92;42.60;102336.97;4981063;28;45230;-77
2022/03/27 08:06:24;;;;;;;;;35.50;32.00;;;;;14.01;42.63;102351.06;4980656;28;45562;-77
2022/03/27 08:08:49;;;;;;;;;35.25;29.50;;;;;14.08;42.48;102355.41;4980862;28;46289;-77
2022/03/27 08:11:15;;;;;;;;;32.25;28.75;;;;;14.12;42.44;102349.97;4980519;28;45166;-77
2022/03/27 08:13:41;;;;;;;;;34.50;31.25;;;;;14.13;42.35;102357.97;4980765;28;45404;-77
2022/03/27 08:16:06;;;;;;;;;30.25;28.50;;;;;14.11;42.29;102342.81;4980267;28;45179;-77
2022/03/27 08:18:33;;;;;;;;;33.25;30.25;;;;;14.17;42.33;102348.06;4980561;28;46133;-77
2022/03/27 08:20:58;;;;;;;;;31.00;28.25;;;;;14.21;42.30;102352.44;4979475;28;45237;-77
2022/03/27 08:23:23;;;;;;;;;33.75;30.50;;;;;14.25;42.39;102352.34;4980671;28;45341;-78
2022/03/27 08:28:33;;;;;;;;;37.75;31.75;;;;;14.39;42.13;102360.09;4980436;28;45887;-77
2022/03/27 08:30:58;;;;;;;;;28.75;28.75;;;;;14.40;42.41;102350.22;4980438;28;45214;-77
2022/03/27 08:33:23;;;;;;;;;34.50;32.50;;;;;14.40;42.07;102350.22;4980648;28;45538;-77
2022/03/27 08:35:49;;;;;;;;;33.50;31.25;;;;;14.46;42.07;102359.03;4980201;28;45690;-77
2022/03/27 08:38:16;;;;;;;;;33.75;29.50;;;;;14.45;41.74;102354.59;4980071;28;46572;-77
2022/03/27 08:40:45;;;;;;;;;29.75;27.00;;;;;14.44;41.62;102352.81;4980424;28;45544;-77
2022/03/27 08:43:16;;;;;;;;;35.25;32.00;;;;;14.48;41.98;102358.13;4980238;28;45222;-77
2022/03/27 08:45:42;;;;;;;;;31.00;26.25;;;;;14.51;41.65;102350.00;4980385;28;45277;-76
2022/03/27 08:48:08;;;;;;;;;33.50;31.25;;;;;14.59;41.42;102350.72;4980046;28;45437;-77
2022/03/27 08:50:50;;;;;;;;;37.25;30.50;;;;;14.64;41.40;102348.81;4980254;28;45580;-77
2022/03/27 08:53:28;;;;;;;;;33.25;31.00;;;;;14.58;41.32;102343.53;4980095;28;45387;-77
2022/03/27 08:56:07;;;;;;;;;29.75;27.25;;;;;14.65;41.44;102353.28;4979008;28;45459;-77
2022/03/27 08:58:36;;;;;;;;;30.50;25.50;;;;;14.67;41.56;102361.28;4980205;28;46207;-76
2022/03/27 09:01:04;;;;;;;;;35.75;31.25;;;;;14.70;41.51;102358.53;4979982;28;45694;-77
2022/03/27 09:03:31;;;;;;;;;34.25;30.75;;;;;14.74;41.49;102353.03;4980347;28;45344;-76
2022/03/27 09:05:56;;;;;;;;;28.25;28.00;;;;;14.77;41.56;102355.66;4979978;28;45484;-76
2022/03/27 09:08:22;;;;;;;;;35.00;31.00;;;;;14.79;41.71;102347.56;4979780;28;45333;-76
2022/03/27 09:10:47;;;;;;;;;34.50;29.25;;;;;14.88;41.55;102357.19;4979960;28;45447;-76
2022/03/27 09:13:16;;;;;;;;;32.75;30.50;;;;;14.97;41.29;102367.75;4979902;28;45301;-76
2022/03/27 09:15:45;;;;;;;;;33.00;30.50;;;;;15.02;41.53;102365.81;4979481;28;45484;-77
2022/03/27 09:18:12;;;;;;;;;35.50;31.50;;;;;15.05;41.05;102360.38;4979967;28;46329;-76
2022/03/27 09:20:46;;;;;;;;;35.00;30.75;;;;;15.13;41.28;102366.41;4979722;28;45182;-76
2022/03/27 09:23:23;;;;;;;;;29.75;28.00;;;;;15.21;41.24;102362.66;4979864;28;45233;-76
2022/03/27 09:26:11;;;;;;;;;29.75;26.50;;;;;15.27;41.01;102357.09;4979770;28;45443;-76
2022/03/27 09:28:40;;;;;;;;;30.00;29.25;;;;;15.31;40.62;102362.38;4979537;28;47548;-77
2022/03/27 09:31:14;;;;;;;;;31.50;29.50;;;;;15.36;40.35;102364.94;4979704;28;45214;-77
2022/03/27 09:33:47;;;;;;;;;23.75;18.25;;;;;15.40;40.65;102358.53;4981974;28;45232;-76
2022/03/27 09:36:15;;;;;;;;;31.75;27.50;;;;;15.44;40.18;102357.53;4982781;28;45356;-76
2022/03/27 09:38:41;;;;;;;;;37.75;33.25;;;;;15.36;40.25;102349.66;4982537;28;45217;-76
2022/03/27 09:41:27;;;;;;;;;35.75;31.25;;;;;15.48;40.28;102361.91;4983318;28;45312;-78
2022/03/27 09:44:05;;;;;;;;;33.25;32.00;;;;;15.46;40.15;102354.81;4983142;28;45323;-75
2022/03/27 09:47:04;;;;;;;;;31.25;28.50;;;;;15.50;39.96;102354.69;4982783;28;45412;-76
2022/03/27 09:49:34;;;;;;;;;28.00;25.50;;;;;15.56;40.20;102357.19;4982846;28;45253;-77
2022/03/27 09:52:20;;;;;;;;;34.25;30.25;;;;;15.64;40.51;102364.19;4982717;28;45392;-76
2022/03/27 09:54:51;;;;;;;;;33.75;30.50;;;;;15.74;39.94;102361.19;4982735;28;45423;-76
2022/03/27 09:57:22;;;;;;;;;33.75;28.50;;;;;15.83;39.94;102348.44;4982567;28;45250;-76
2022/03/27 09:59:48;;;;;;;;;29.75;27.50;;;;;15.88;40.10;102358.13;4982530;28;46119;-77
2022/03/27 10:02:22;;;;;;;;;33.50;31.00;;;;;15.91;39.70;102343.72;4982790;28;45350;-76
2022/03/27 10:05:08;;;;;;;;;31.50;30.50;;;;;16.00;39.41;102343.41;4981379;28;45406;-77
2022/03/27 10:07:40;;;;;;;;;27.00;20.50;;;;;16.06;39.46;102339.69;4982594;28;45403;-77
2022/03/27 10:10:08;;;;;;;;;34.75;30.00;;;;;16.11;39.18;102351.19;4982510;28;45896;-76
2022/03/27 10:12:37;;;;;;;;;31.25;26.50;;;;;16.14;39.14;102342.13;4980991;28;45243;-76
2022/03/27 10:15:14;;;;;;;;;29.25;26.50;;;;;16.16;39.31;102338.47;4981217;28;45256;-77
2022/03/27 10:17:45;;;;;;;;;31.25;29.50;;;;;16.25;39.27;102337.31;4982321;28;45387;-76
2022/03/27 10:20:13;;;;;;;;;23.75;20.50;;;;;16.30;39.20;102333.56;4982284;28;45273;-76
2022/03/27 10:22:45;;;;;;;;;28.75;27.00;;;;;16.41;39.32;102337.72;4980830;28;45270;-77
2022/03/27 10:25:14;;;;;;;;;34.25;29.25;;;;;16.45;39.27;102325.91;4982406;28;45241;-76
2022/03/27 10:27:42;;;;;;;;;32.25;30.00;;;;;16.57;38.96;102324.63;4982145;28;45273;-76
2022/03/27 10:30:10;;;;;;;;;35.75;32.50;;;;;16.66;38.96;102324.34;4980625;28;47470;-76
2022/03/27 10:32:36;;;;;;;;;36.25;32.25;;;;;16.69;38.46;102318.84;4982263;28;45168;-76
2022/03/27 10:35:13;;;;;;;;;37.00;30.00;;;;;16.71;38.76;102318.78;4982106;28;45351;-76
2022/03/27 10:37:57;;;;;;;;;30.50;28.25;;;;;16.76;38.46;102316.81;4981838;28;45576;-76
2022/03/27 10:40:40;;;;;;;;;36.75;30.50;;;;;16.84;38.52;102320.16;4981837;28;45231;-77
2022/03/27 10:43:22;;;;;;;;;38.75;32.00;;;;;16.88;38.21;102311.03;4981744;28;45356;-76
2022/03/27 10:46:15;;;;;;;;;36.25;32.00;;;;;16.94;38.41;102312.63;4981705;28;45340;-76
2022/03/27 10:48:42;;;;;;;;;31.50;25.50;;;;;16.95;38.66;102304.50;4982056;28;45523;-75
2022/03/27 10:51:10;;;;;;;;;31.50;30.00;;;;;17.03;38.43;102299.72;4981778;28;45324;-76
2022/03/27 10:53:36;;;;;;;;;34.00;31.75;;;;;17.12;38.36;102297.63;4980625;28;45658;-76
2022/03/27 10:56:03;;;;;;;;;41.00;33.00;;;;;17.16;38.25;102288.53;4981730;28;45160;-76
2022/03/27 10:58:35;;;;;;;;;39.75;32.00;;;;;17.21;38.23;102300.91;4981763;28;45426;-76
2022/03/27 11:01:05;;;;;;;;;37.75;33.00;;;;;17.23;38.04;102292.75;4981619;28;46371;-76
2022/03/27 11:04:04;;;;;;;;;40.75;33.00;;;;;17.28;38.26;102279.09;4981724;28;45328;-75
2022/03/27 11:06:31;;;;;;;;;37.75;33.00;;;;;17.30;37.97;102283.50;4996693;28;45282;-76
2022/03/27 11:09:13;;;;;;;;;40.00;32.00;;;;;17.41;37.78;102278.59;4982106;28;45488;-76
2022/03/27 11:11:39;;;;;;;;;28.25;27.25;;;;;17.47;37.78;102280.16;4985032;28;48216;-76
2022/03/27 11:14:09;;;;;;;;;36.25;29.75;;;;;17.53;37.44;102273.69;4981154;28;45253;-76
2022/03/27 11:17:04;;;;;;;;;37.25;31.50;;;;;17.58;37.62;102274.38;4981619;28;45447;-76
2022/03/27 11:19:47;;;;;;;;;36.50;31.75;;;;;17.68;37.16;102278.50;4981477;28;45562;-76
2022/03/27 11:22:51;;;;;;;;;38.50;35.00;;;;;17.74;37.50;102272.88;4981179;28;45947;-76